createdAt,value
2023-04-15T00:01:12.075Z,8.98
2023-04-15T00:03:39.479Z,8.95
2023-04-15T00:06:07.007Z,8.89
2023-04-15T00:08:34.290Z,8.85
2023-04-15T00:11:03.419Z,8.84
2023-04-15T00:13:30.821Z,8.82
2023-04-15T00:15:58.257Z,8.79
2023-04-15T00:18:25.569Z,8.78
2023-04-15T00:20:52.757Z,8.77
2023-04-15T00:23:20.676Z,8.74
2023-04-15T00:25:47.818Z,8.73
2023-04-15T00:28:15.136Z,8.73
2023-04-15T00:30:42.411Z,8.72
2023-04-15T00:33:09.958Z,8.71
2023-04-15T00:35:38.382Z,8.70
2023-04-15T00:38:08.267Z,8.71
2023-04-15T00:40:35.938Z,8.69
2023-04-15T00:43:04.218Z,8.68
2023-04-15T00:45:32.212Z,8.68
2023-04-15T00:47:59.947Z,8.67
2023-04-15T00:50:26.983Z,8.66
2023-04-15T00:52:54.255Z,8.63
2023-04-15T00:55:21.299Z,8.61
2023-04-15T00:57:49.042Z,8.59
2023-04-15T01:00:16.671Z,8.58
2023-04-15T01:05:22.849Z,8.54
2023-04-15T01:08:10.702Z,8.50
2023-04-15T01:11:01.507Z,8.50
2023-04-15T01:13:49.193Z,8.49
2023-04-15T01:16:39.829Z,8.49
2023-04-15T01:19:27.695Z,8.49
2023-04-15T01:22:15.486Z,8.50
2023-04-15T01:25:12.375Z,8.49
2023-04-15T01:28:00.700Z,8.49
2023-04-15T01:30:48.585Z,8.48
2023-04-15T01:33:36.868Z,8.48
2023-04-15T01:36:24.337Z,8.48
2023-04-15T01:39:11.805Z,8.46
2023-04-15T01:41:59.264Z,8.44
2023-04-15T01:44:46.697Z,8.43
2023-04-15T01:47:34.011Z,8.42
2023-04-15T01:50:21.782Z,8.41
2023-04-15T01:53:09.664Z,8.43
2023-04-15T01:55:57.281Z,8.40
2023-04-15T01:58:44.849Z,8.35
2023-04-15T02:01:32.569Z,8.33
2023-04-15T02:04:19.840Z,8.29
2023-04-15T02:07:08.808Z,8.25
2023-04-15T02:09:56.319Z,8.23
2023-04-15T02:12:43.972Z,8.18
2023-04-15T02:15:31.782Z,8.11
2023-04-15T02:18:19.499Z,8.07
2023-04-15T02:21:07.401Z,8.04
2023-04-15T02:23:54.755Z,8.02
2023-04-15T02:26:42.306Z,8.00
2023-04-15T02:29:31.499Z,7.99
2023-04-15T02:32:18.919Z,7.98
2023-04-15T02:35:09.050Z,7.98
2023-04-15T02:37:56.613Z,7.99
2023-04-15T02:40:44.133Z,7.99
2023-04-15T02:43:31.653Z,7.98
2023-04-15T02:46:19.025Z,7.96
2023-04-15T02:49:06.577Z,7.93
2023-04-15T02:51:54.126Z,7.90
2023-04-15T02:54:41.629Z,7.85
2023-04-15T02:57:08.860Z,7.83
2023-04-15T02:59:35.927Z,7.81
2023-04-15T03:02:03.125Z,7.78
2023-04-15T03:04:30.924Z,7.77
2023-04-15T03:06:57.936Z,7.73
2023-04-15T03:09:25.195Z,7.69
2023-04-15T03:11:53.641Z,7.65
2023-04-15T03:14:20.931Z,7.61
2023-04-15T03:16:50.691Z,7.57
2023-04-15T03:19:18.104Z,7.52
2023-04-15T03:21:45.085Z,7.49
2023-04-15T03:24:12.073Z,7.45
2023-04-15T03:26:39.217Z,7.43
2023-04-15T03:29:06.587Z,7.42
2023-04-15T03:31:33.643Z,7.39
2023-04-15T03:34:00.915Z,7.37
2023-04-15T03:36:32.319Z,7.35
2023-04-15T03:39:00.161Z,7.33
2023-04-15T03:41:28.440Z,7.33
2023-04-15T03:43:55.664Z,7.31
2023-04-15T03:46:22.795Z,7.28
2023-04-15T03:48:50.112Z,7.25
2023-04-15T03:51:17.334Z,7.24
2023-04-15T03:53:44.323Z,7.24
2023-04-15T03:56:11.790Z,7.24
2023-04-15T03:58:38.803Z,7.21
2023-04-15T04:01:06.053Z,7.20
2023-04-15T04:03:33.655Z,7.18
2023-04-15T04:06:01.106Z,7.17
2023-04-15T04:08:28.141Z,7.16
2023-04-15T04:10:55.238Z,7.13
2023-04-15T04:13:22.419Z,7.13
2023-04-15T04:15:49.577Z,7.13
2023-04-15T04:18:16.846Z,7.13
2023-04-15T04:20:44.018Z,7.13
2023-04-15T04:23:11.612Z,7.13
2023-04-15T04:25:39.295Z,7.12
2023-04-15T04:28:06.274Z,7.12
2023-04-15T04:30:33.518Z,7.10
2023-04-15T04:33:00.851Z,7.09
2023-04-15T04:35:28.075Z,7.08
2023-04-15T04:37:55.097Z,7.10
2023-04-15T04:40:22.203Z,7.07
2023-04-15T04:42:49.575Z,7.05
2023-04-15T04:45:16.636Z,7.05
2023-04-15T04:47:43.762Z,7.03
2023-04-15T04:50:13.853Z,7.04
2023-04-15T04:52:41.199Z,7.03
2023-04-15T04:55:08.911Z,7.04
2023-04-15T04:57:39.738Z,7.04
2023-04-15T05:00:09.248Z,7.05
2023-04-15T05:02:36.851Z,7.06
2023-04-15T05:05:04.299Z,7.10
2023-04-15T05:07:31.441Z,7.13
2023-04-15T05:09:58.506Z,7.15
2023-04-15T05:12:26.124Z,7.18
2023-04-15T05:14:53.132Z,7.20
2023-04-15T05:17:20.236Z,7.25
2023-04-15T05:19:47.403Z,7.29
2023-04-15T05:22:14.511Z,7.34
2023-04-15T05:24:41.645Z,7.38
2023-04-15T05:27:10.589Z,7.41
2023-04-15T05:29:37.704Z,7.40
2023-04-15T05:32:05.135Z,7.43
2023-04-15T05:34:32.112Z,7.42
2023-04-15T05:36:59.160Z,7.44
2023-04-15T05:39:26.695Z,7.46
2023-04-15T05:41:54.356Z,7.50
2023-04-15T05:44:21.373Z,7.51
2023-04-15T05:46:48.378Z,7.55
2023-04-15T05:49:15.596Z,7.57
2023-04-15T05:51:42.616Z,7.59
2023-04-15T05:54:10.416Z,7.62
2023-04-15T05:56:37.408Z,7.65
2023-04-15T05:59:04.375Z,7.71
2023-04-15T06:01:31.484Z,7.74
2023-04-15T06:03:58.598Z,7.81
2023-04-15T06:06:27.352Z,7.86
2023-04-15T06:08:55.949Z,7.97
2023-04-15T06:11:23.322Z,8.06
2023-04-15T06:13:50.586Z,8.16
2023-04-15T06:16:18.132Z,8.27
2023-04-15T06:18:45.345Z,8.38
2023-04-15T06:21:12.740Z,8.50
2023-04-15T06:23:41.391Z,8.61
2023-04-15T06:26:10.725Z,8.71
2023-04-15T06:28:37.759Z,8.83
2023-04-15T06:31:04.896Z,8.90
2023-04-15T06:33:32.407Z,8.96
2023-04-15T06:35:59.528Z,9.05
2023-04-15T06:38:26.524Z,9.10
2023-04-15T06:40:53.672Z,9.14
2023-04-15T06:43:21.008Z,9.18
2023-04-15T06:45:48.151Z,9.22
2023-04-15T06:48:15.629Z,9.23
2023-04-15T06:50:43.125Z,9.29
2023-04-15T06:53:10.212Z,9.36
2023-04-15T06:55:37.223Z,9.43
2023-04-15T06:58:04.217Z,9.51
2023-04-15T07:00:31.386Z,9.61
2023-04-15T07:02:58.565Z,9.69
2023-04-15T07:05:26.692Z,9.76
2023-04-15T07:07:53.680Z,9.84
2023-04-15T07:10:20.912Z,9.95
2023-04-15T07:12:49.378Z,10.04
2023-04-15T07:15:16.872Z,10.13
2023-04-15T07:17:44.038Z,10.21
2023-04-15T07:20:12.783Z,10.32
2023-04-15T07:22:40.380Z,10.39
2023-04-15T07:25:08.969Z,10.48
2023-04-15T07:27:36.385Z,10.57
2023-04-15T07:30:03.808Z,10.67
2023-04-15T07:32:31.291Z,10.74
2023-04-15T07:34:58.411Z,10.83
2023-04-15T07:37:25.535Z,10.93
2023-04-15T07:39:53.140Z,11.03
2023-04-15T07:42:20.286Z,11.14
2023-04-15T07:44:47.512Z,11.23
2023-04-15T07:47:14.569Z,11.35
2023-04-15T07:49:43.483Z,11.46
2023-04-15T07:52:11.106Z,11.57
2023-04-15T07:54:38.230Z,11.68
2023-04-15T07:57:05.265Z,11.77
2023-04-15T07:59:33.764Z,11.89
2023-04-15T08:02:00.978Z,11.99
2023-04-15T08:04:28.690Z,12.07
2023-04-15T08:06:55.909Z,12.16
2023-04-15T08:09:23.000Z,12.25
2023-04-15T08:11:51.343Z,12.36
2023-04-15T08:14:18.407Z,12.44
2023-04-15T08:16:47.060Z,12.55
2023-04-15T08:19:14.163Z,12.67
2023-04-15T08:21:41.254Z,12.76
2023-04-15T08:24:08.360Z,12.79
2023-04-15T08:26:35.650Z,12.85
2023-04-15T08:29:02.958Z,12.92
2023-04-15T08:31:30.895Z,13.01
2023-04-15T08:33:59.447Z,13.09
2023-04-15T08:36:27.179Z,13.19
2023-04-15T08:38:54.282Z,13.31
2023-04-15T08:41:24.183Z,13.42
2023-04-15T08:44:02.104Z,13.51
2023-04-15T08:46:31.582Z,13.62
2023-04-15T08:48:59.314Z,13.73
2023-04-15T08:51:27.414Z,13.80
2023-04-15T08:53:55.321Z,13.86
2023-04-15T08:56:27.072Z,13.95
2023-04-15T08:58:54.752Z,14.00
2023-04-15T09:01:23.160Z,14.07
2023-04-15T09:03:51.072Z,14.15
2023-04-15T09:06:19.055Z,14.21
2023-04-15T09:08:46.181Z,14.28
2023-04-15T09:11:15.216Z,14.30
2023-04-15T09:13:42.788Z,14.33
2023-04-15T09:16:10.413Z,14.37
2023-04-15T09:18:39.172Z,14.43
2023-04-15T09:21:12.811Z,14.46
2023-04-15T09:23:53.834Z,14.42
2023-04-15T09:26:30.757Z,14.33
2023-04-15T09:29:10.299Z,14.26
2023-04-15T09:31:37.931Z,14.29
2023-04-15T09:34:06.209Z,14.37
2023-04-15T09:36:51.149Z,14.53
2023-04-15T09:39:18.354Z,14.64
2023-04-15T09:41:45.780Z,14.85
2023-04-15T09:44:27.078Z,15.02
2023-04-15T09:46:54.185Z,15.12
2023-04-15T09:49:21.631Z,15.16
2023-04-15T09:52:03.957Z,15.22
2023-04-15T09:54:37.517Z,15.28
2023-04-15T09:57:10.437Z,15.36
2023-04-15T09:59:37.777Z,15.40
2023-04-15T10:02:07.268Z,15.39
2023-04-15T10:04:39.987Z,15.39
2023-04-15T10:07:12.201Z,15.43
2023-04-15T10:09:39.964Z,15.43
2023-04-15T10:12:07.649Z,15.47
2023-04-15T10:14:39.008Z,15.61
2023-04-15T10:17:07.909Z,15.66
2023-04-15T10:19:38.210Z,15.76
2023-04-15T10:22:06.656Z,15.86
2023-04-15T10:24:34.303Z,15.98
2023-04-15T10:27:03.803Z,16.11
2023-04-15T10:29:31.335Z,16.23
2023-04-15T10:32:00.619Z,16.35
2023-04-15T10:34:28.699Z,16.41
2023-04-15T10:37:01.620Z,16.47
2023-04-15T10:39:34.740Z,16.56
2023-04-15T10:42:10.004Z,16.50
2023-04-15T10:44:39.308Z,16.49
2023-04-15T10:47:15.773Z,16.40
2023-04-15T10:50:01.448Z,16.38
2023-04-15T10:52:29.972Z,16.40
2023-04-15T10:55:18.916Z,16.45
2023-04-15T10:57:46.160Z,16.55
2023-04-15T11:00:19.167Z,16.65
2023-04-15T11:02:59.672Z,16.80
2023-04-15T11:05:42.115Z,16.90
2023-04-15T11:08:13.754Z,17.03
2023-04-15T11:10:41.091Z,17.14
2023-04-15T11:13:11.151Z,17.26
2023-04-15T11:15:42.293Z,17.30
2023-04-15T11:18:18.813Z,17.25
2023-04-15T11:20:48.255Z,17.31
2023-04-15T11:23:17.272Z,17.42
2023-04-15T11:25:44.877Z,17.53
2023-04-15T11:28:13.474Z,17.59
2023-04-15T11:30:42.526Z,17.69
2023-04-15T11:33:14.775Z,17.75
2023-04-15T11:35:44.972Z,17.69
2023-04-15T11:38:15.381Z,17.60
2023-04-15T11:40:46.847Z,17.62
2023-04-15T11:43:21.061Z,17.77
2023-04-15T11:46:01.625Z,17.93
2023-04-15T11:48:34.601Z,18.08
2023-04-15T11:51:07.402Z,18.08
2023-04-15T11:53:52.078Z,18.14
2023-04-15T11:56:27.431Z,18.05
2023-04-15T11:58:58.747Z,17.92
2023-04-15T12:01:37.351Z,18.06
2023-04-15T12:04:20.657Z,18.12
2023-04-15T12:06:49.447Z,18.06
2023-04-15T12:09:17.450Z,18.03
2023-04-15T12:11:50.210Z,18.05
2023-04-15T12:14:26.851Z,18.11
2023-04-15T12:17:14.161Z,18.07
2023-04-15T12:19:43.294Z,18.14
2023-04-15T12:22:14.266Z,18.18
2023-04-15T12:24:49.599Z,18.44
2023-04-15T12:27:17.760Z,18.73
2023-04-15T12:29:45.311Z,18.90
2023-04-15T12:32:17.581Z,18.79
2023-04-15T12:34:54.538Z,18.70
2023-04-15T12:37:22.214Z,18.67
2023-04-15T12:39:51.122Z,18.64
2023-04-15T12:42:19.075Z,18.40
2023-04-15T12:44:47.042Z,18.18
2023-04-15T12:47:14.481Z,18.13
2023-04-15T12:49:41.651Z,18.12
2023-04-15T12:52:08.933Z,18.23
2023-04-15T12:54:36.374Z,18.28
2023-04-15T12:57:06.873Z,18.24
2023-04-15T12:59:34.975Z,18.10
2023-04-15T13:02:02.973Z,18.17
2023-04-15T13:04:33.299Z,18.23
2023-04-15T13:07:01.523Z,18.38
2023-04-15T13:09:28.612Z,18.56
2023-04-15T13:11:57.794Z,18.59
2023-04-15T13:14:26.039Z,18.54
2023-04-15T13:16:53.868Z,18.50
2023-04-15T13:19:20.823Z,18.44
2023-04-15T13:21:48.393Z,18.53
2023-04-15T13:24:15.801Z,18.66
2023-04-15T13:26:42.819Z,18.66
2023-04-15T13:29:10.082Z,18.63
2023-04-15T13:31:37.072Z,18.66
2023-04-15T13:34:04.350Z,18.47
2023-04-15T13:36:31.960Z,18.35
2023-04-15T13:39:00.005Z,18.63
2023-04-15T13:41:27.053Z,18.70
2023-04-15T13:43:54.067Z,18.43
2023-04-15T13:46:21.097Z,18.44
2023-04-15T13:48:48.137Z,18.49
2023-04-15T13:51:15.431Z,18.48
2023-04-15T13:53:42.587Z,18.59
2023-04-15T13:56:10.552Z,18.44
2023-04-15T13:58:38.521Z,18.23
2023-04-15T14:01:07.399Z,18.21
2023-04-15T14:03:38.365Z,18.28
2023-04-15T14:06:06.942Z,18.21
2023-04-15T14:08:34.395Z,18.03
2023-04-15T14:11:01.789Z,17.89
2023-04-15T14:13:28.999Z,17.69
2023-04-15T14:15:57.511Z,17.71
2023-04-15T14:18:24.507Z,18.11
2023-04-15T14:20:51.985Z,18.48
2023-04-15T14:23:19.112Z,18.81
2023-04-15T14:25:48.174Z,18.90
2023-04-15T14:28:15.899Z,19.03
2023-04-15T14:30:42.995Z,19.00
2023-04-15T14:33:10.320Z,18.81
2023-04-15T14:35:38.032Z,18.61
2023-04-15T14:38:06.165Z,18.65
2023-04-15T14:40:34.227Z,18.66
2023-04-15T14:43:01.329Z,18.70
2023-04-15T14:45:28.547Z,18.51
2023-04-15T14:47:56.009Z,18.28
2023-04-15T14:50:23.388Z,18.21
2023-04-15T14:52:50.620Z,18.20
2023-04-15T14:55:17.752Z,18.38
2023-04-15T14:57:45.008Z,18.55
2023-04-15T15:00:15.827Z,18.61
2023-04-15T15:02:43.914Z,18.80
2023-04-15T15:05:12.003Z,18.95
2023-04-15T15:07:41.085Z,18.72
2023-04-15T15:10:08.637Z,18.42
2023-04-15T15:12:36.181Z,18.12
2023-04-15T15:15:12.446Z,17.84
2023-04-15T15:17:47.086Z,17.55
2023-04-15T15:20:14.211Z,17.33
2023-04-15T15:22:41.287Z,17.03
2023-04-15T15:25:08.491Z,16.68
2023-04-15T15:27:38.105Z,16.57
2023-04-15T15:30:07.070Z,16.55
2023-04-15T15:32:34.236Z,16.71
2023-04-15T15:35:01.475Z,17.41
2023-04-15T15:37:30.636Z,18.17
2023-04-15T15:39:57.776Z,18.70
2023-04-15T15:42:26.120Z,19.02
2023-04-15T15:44:53.354Z,19.09
2023-04-15T15:47:22.169Z,19.02
2023-04-15T15:49:49.285Z,18.90
2023-04-15T15:52:16.432Z,18.59
2023-04-15T15:54:43.488Z,18.41
2023-04-15T15:57:11.142Z,18.41
2023-04-15T15:59:43.536Z,18.28
2023-04-15T16:02:12.024Z,18.19
2023-04-15T16:04:40.438Z,18.13
2023-04-15T16:07:07.951Z,18.07
2023-04-15T16:09:35.305Z,17.73
2023-04-15T16:12:04.005Z,17.33
2023-04-15T16:14:31.297Z,17.00
2023-04-15T16:17:01.362Z,16.84
2023-04-15T16:19:28.340Z,16.93
2023-04-15T16:21:55.540Z,17.03
2023-04-15T16:24:22.553Z,17.07
2023-04-15T16:26:49.548Z,17.08
2023-04-15T16:29:16.746Z,17.29
2023-04-15T16:31:43.770Z,17.40
2023-04-15T16:34:10.806Z,17.50
2023-04-15T16:36:40.655Z,17.50
2023-04-15T16:39:07.906Z,17.75
2023-04-15T16:41:35.412Z,17.67
2023-04-15T16:44:03.378Z,17.33
2023-04-15T16:46:31.644Z,16.96
2023-04-15T16:48:59.053Z,16.76
2023-04-15T16:51:27.329Z,17.09
2023-04-15T16:53:54.472Z,17.28
2023-04-15T16:56:22.072Z,17.15
2023-04-15T16:58:49.221Z,16.79
2023-04-15T17:01:16.397Z,16.39
2023-04-15T17:03:43.992Z,16.08
2023-04-15T17:06:11.318Z,15.89
2023-04-15T17:08:38.748Z,15.77
2023-04-15T17:11:06.457Z,15.52
2023-04-15T17:13:33.533Z,15.51
2023-04-15T17:16:00.573Z,15.23
2023-04-15T17:18:28.227Z,15.05
2023-04-15T17:20:58.290Z,14.93
2023-04-15T17:23:27.135Z,14.71
2023-04-15T17:25:54.465Z,14.53
2023-04-15T17:28:21.489Z,14.36
2023-04-15T17:30:48.632Z,14.17
2023-04-15T17:33:57.380Z,13.97
2023-04-15T17:36:02.902Z,13.80
2023-04-15T17:38:32.487Z,13.68
2023-04-15T17:41:00.149Z,13.53
2023-04-15T17:43:27.377Z,13.38
2023-04-15T17:45:54.583Z,13.22
2023-04-15T17:48:21.571Z,13.12
2023-04-15T17:50:51.297Z,13.04
2023-04-15T17:53:19.052Z,13.00
2023-04-15T17:55:46.611Z,12.94
2023-04-15T17:58:13.623Z,12.92
2023-04-15T18:00:43.188Z,12.89
2023-04-15T18:03:10.537Z,12.85
2023-04-15T18:05:37.657Z,12.84
2023-04-15T18:08:06.589Z,12.81
2023-04-15T18:10:37.342Z,12.75
2023-04-15T18:13:04.575Z,12.68
2023-04-15T18:15:32.296Z,12.59
2023-04-15T18:18:00.311Z,12.49
2023-04-15T18:20:27.992Z,12.43
2023-04-15T18:22:55.778Z,12.36
2023-04-15T18:25:22.986Z,12.29
2023-04-15T18:27:50.188Z,12.28
2023-04-15T18:30:17.217Z,12.27
2023-04-15T18:32:44.282Z,12.20
2023-04-15T18:35:11.518Z,12.12
2023-04-15T18:37:38.694Z,12.08
2023-04-15T18:40:08.043Z,12.01
2023-04-15T18:42:35.541Z,11.95
2023-04-15T18:45:02.521Z,11.91
2023-04-15T18:47:29.811Z,11.89
2023-04-15T18:49:58.652Z,11.89
2023-04-15T18:52:25.842Z,11.88
2023-04-15T18:54:52.845Z,11.86
2023-04-15T18:57:31.119Z,11.87
2023-04-15T19:00:01.657Z,11.89
2023-04-15T19:02:28.773Z,11.87
2023-04-15T19:04:56.399Z,11.86
2023-04-15T19:07:24.007Z,11.80
2023-04-15T19:09:52.913Z,11.77
2023-04-15T19:12:20.348Z,11.76
2023-04-15T19:14:47.335Z,11.73
2023-04-15T19:17:14.700Z,11.69
2023-04-15T19:19:41.758Z,11.63
2023-04-15T19:22:09.656Z,11.60
2023-04-15T19:24:36.701Z,11.59
2023-04-15T19:27:04.005Z,11.60
2023-04-15T19:29:31.064Z,11.58
2023-04-15T19:31:58.317Z,11.55
2023-04-15T19:34:25.303Z,11.53
2023-04-15T19:36:52.546Z,11.47
2023-04-15T19:39:19.773Z,11.42
2023-04-15T19:41:47.452Z,11.38
2023-04-15T19:44:15.938Z,11.35
2023-04-15T19:46:45.049Z,11.31
2023-04-15T19:49:12.383Z,11.27
2023-04-15T19:51:39.505Z,11.26
2023-04-15T19:54:06.638Z,11.22
2023-04-15T19:56:34.554Z,11.23
2023-04-15T19:59:02.313Z,11.25
2023-04-15T20:01:29.572Z,11.26
2023-04-15T20:03:56.823Z,11.22
2023-04-15T20:06:24.299Z,11.23
2023-04-15T20:08:51.904Z,11.20
2023-04-15T20:11:19.535Z,11.16
2023-04-15T20:13:46.779Z,11.07
2023-04-15T20:16:14.001Z,10.96
2023-04-15T20:18:41.643Z,10.91
2023-04-15T20:21:09.032Z,10.89
2023-04-15T20:23:38.287Z,10.90
2023-04-15T20:26:05.341Z,10.90
2023-04-15T20:28:32.545Z,10.88
2023-04-15T20:31:01.873Z,10.85
2023-04-15T20:33:29.496Z,10.84
2023-04-15T20:35:56.657Z,10.83
2023-04-15T20:38:24.205Z,10.77
2023-04-15T20:40:51.379Z,10.74
2023-04-15T20:43:19.096Z,10.71
2023-04-15T20:45:46.524Z,10.71
2023-04-15T20:48:14.166Z,10.69
2023-04-15T20:50:41.684Z,10.69
2023-04-15T20:53:09.082Z,10.66
2023-04-15T20:55:36.263Z,10.63
2023-04-15T20:58:03.502Z,10.60
2023-04-15T21:00:31.955Z,10.57
2023-04-15T21:03:02.096Z,10.54
2023-04-15T21:05:29.178Z,10.51
2023-04-15T21:07:56.402Z,10.49
2023-04-15T21:10:23.510Z,10.49
2023-04-15T21:12:51.666Z,10.47
2023-04-15T21:15:18.836Z,10.46
2023-04-15T21:17:46.009Z,10.48
2023-04-15T21:20:13.529Z,10.50
2023-04-15T21:22:41.273Z,10.52
2023-04-15T21:25:09.277Z,10.56
2023-04-15T21:27:36.304Z,10.57
2023-04-15T21:30:04.033Z,10.52
2023-04-15T21:32:31.363Z,10.49
2023-04-15T21:34:58.549Z,10.43
2023-04-15T21:37:26.277Z,10.40
2023-04-15T21:39:53.478Z,10.33
2023-04-15T21:42:20.822Z,10.28
2023-04-15T21:44:48.012Z,10.22
2023-04-15T21:47:15.029Z,10.16
2023-04-15T21:49:42.454Z,10.09
2023-04-15T21:52:09.913Z,10.06
2023-04-15T21:54:38.079Z,10.05
2023-04-15T21:57:05.291Z,10.02
2023-04-15T21:59:32.479Z,9.97
2023-04-15T22:02:00.159Z,9.93
2023-04-15T22:04:27.612Z,9.87
2023-04-15T22:06:55.865Z,9.84
2023-04-15T22:09:22.971Z,9.79
2023-04-15T22:11:50.042Z,9.76
2023-04-15T22:14:17.270Z,9.72
2023-04-15T22:16:44.566Z,9.67
2023-04-15T22:19:11.732Z,9.64
2023-04-15T22:21:38.697Z,9.63
2023-04-15T22:24:38.013Z,9.59
2023-04-15T22:26:54.142Z,9.57
2023-04-15T22:29:21.848Z,9.55
2023-04-15T22:31:49.073Z,9.53
2023-04-15T22:34:21.235Z,9.51
2023-04-15T22:36:52.981Z,9.51
2023-04-15T22:39:21.324Z,9.51
2023-04-15T22:41:49.613Z,9.52
2023-04-15T22:44:16.704Z,9.52
2023-04-15T22:46:43.755Z,9.53
2023-04-15T22:49:10.912Z,9.53
2023-04-15T22:51:38.396Z,9.50
2023-04-15T22:54:05.548Z,9.48
2023-04-15T22:56:32.800Z,9.43
2023-04-15T22:58:59.796Z,9.41
2023-04-15T23:01:26.968Z,9.40
2023-04-15T23:03:55.585Z,9.44
2023-04-15T23:06:25.278Z,9.44
2023-04-15T23:08:53.307Z,9.42
2023-04-15T23:11:20.466Z,9.38
2023-04-15T23:13:47.511Z,9.37
2023-04-15T23:16:14.577Z,9.37
2023-04-15T23:18:41.674Z,9.37
2023-04-15T23:21:08.648Z,9.35
2023-04-15T23:23:35.710Z,9.31
2023-04-15T23:26:04.037Z,9.27
2023-04-15T23:28:31.262Z,9.27
2023-04-15T23:31:00.448Z,9.29
2023-04-15T23:33:27.907Z,9.26
2023-04-15T23:35:55.088Z,9.24
2023-04-15T23:38:22.268Z,9.24
2023-04-15T23:40:50.749Z,9.26
2023-04-15T23:43:17.734Z,9.31
2023-04-15T23:45:44.898Z,9.33
2023-04-15T23:48:11.906Z,9.29
2023-04-15T23:50:39.100Z,9.27
2023-04-15T23:53:06.448Z,9.24
2023-04-15T23:55:33.396Z,9.26
2023-04-15T23:58:00.795Z,9.25
